sensor_id;sensor_type;location;lat;lon;timestamp;pressure;altitude;pressure_sealevel;temperature;humidity
64668;BME280;51077;42.716;23.344;2023-03-13T00:00:49;95596.28;;;7.98;35.29
64668;BME280;51077;42.716;23.344;2023-03-13T00:03:14;95592.53;;;7.96;35.46
64668;BME280;51077;42.716;23.344;2023-03-13T00:05:40;95598.50;;;7.94;35.59
64668;BME280;51077;42.716;23.344;2023-03-13T00:08:05;95591.25;;;7.91;35.42
64668;BME280;51077;42.716;23.344;2023-03-13T00:10:31;95597.22;;;7.90;35.63
64668;BME280;51077;42.716;23.344;2023-03-13T00:12:56;95598.47;;;7.89;35.52
64668;BME280;51077;42.716;23.344;2023-03-13T00:15:21;95597.72;;;7.88;35.78
64668;BME280;51077;42.716;23.344;2023-03-13T00:17:47;95602.16;;;7.86;35.79
64668;BME280;51077;42.716;23.344;2023-03-13T00:20:12;95617.81;;;7.85;35.91
64668;BME280;51077;42.716;23.344;2023-03-13T00:22:38;95614.06;;;7.82;35.85
64668;BME280;51077;42.716;23.344;2023-03-13T00:25:03;95619.50;;;7.82;35.94
64668;BME280;51077;42.716;23.344;2023-03-13T00:27:32;95614.56;;;7.81;35.56
64668;BME280;51077;42.716;23.344;2023-03-13T00:29:58;95624.44;;;7.78;35.45
64668;BME280;51077;42.716;23.344;2023-03-13T00:32:24;95624.19;;;7.76;36.07
64668;BME280;51077;42.716;23.344;2023-03-13T00:34:49;95621.97;;;7.75;35.72
64668;BME280;51077;42.716;23.344;2023-03-13T00:37:14;95613.75;;;7.75;35.93
64668;BME280;51077;42.716;23.344;2023-03-13T00:39:40;95618.00;;;7.76;35.78
64668;BME280;51077;42.716;23.344;2023-03-13T00:42:05;95614.97;;;7.74;36.00
64668;BME280;51077;42.716;23.344;2023-03-13T00:44:30;95622.91;;;7.72;35.87
64668;BME280;51077;42.716;23.344;2023-03-13T00:46:56;95620.66;;;7.70;36.10
64668;BME280;51077;42.716;23.344;2023-03-13T00:49:21;95619.16;;;7.69;35.99
64668;BME280;51077;42.716;23.344;2023-03-13T00:51:47;95611.19;;;7.66;36.00
64668;BME280;51077;42.716;23.344;2023-03-13T00:54:12;95620.63;;;7.65;36.07
64668;BME280;51077;42.716;23.344;2023-03-13T00:56:37;95616.38;;;7.64;35.84
64668;BME280;51077;42.716;23.344;2023-03-13T00:59:03;95612.16;;;7.63;36.11
64668;BME280;51077;42.716;23.344;2023-03-13T01:01:31;95606.69;;;7.63;35.84
64668;BME280;51077;42.716;23.344;2023-03-13T01:03:59;95607.66;;;7.60;36.29
64668;BME280;51077;42.716;23.344;2023-03-13T01:06:27;95609.66;;;7.59;36.27
64668;BME280;51077;42.716;23.344;2023-03-13T01:08:54;95605.88;;;7.56;36.13
64668;BME280;51077;42.716;23.344;2023-03-13T01:11:22;95605.13;;;7.56;36.22
64668;BME280;51077;42.716;23.344;2023-03-13T01:13:49;95605.34;;;7.52;36.46
64668;BME280;51077;42.716;23.344;2023-03-13T01:16:19;95609.06;;;7.49;36.42
64668;BME280;51077;42.716;23.344;2023-03-13T01:18:48;95609.53;;;7.48;36.13
64668;BME280;51077;42.716;23.344;2023-03-13T01:21:14;95612.25;;;7.48;36.74
64668;BME280;51077;42.716;23.344;2023-03-13T01:23:40;95606.81;;;7.48;36.42
64668;BME280;51077;42.716;23.344;2023-03-13T01:26:07;95607.00;;;7.44;36.52
64668;BME280;51077;42.716;23.344;2023-03-13T01:28:34;95615.22;;;7.44;36.83
64668;BME280;51077;42.716;23.344;2023-03-13T01:30:59;95618.44;;;7.43;36.46
64668;BME280;51077;42.716;23.344;2023-03-13T01:33:25;95620.63;;;7.39;36.62
64668;BME280;51077;42.716;23.344;2023-03-13T01:35:51;95628.56;;;7.37;36.85
64668;BME280;51077;42.716;23.344;2023-03-13T01:38:16;95622.81;;;7.35;36.75
64668;BME280;51077;42.716;23.344;2023-03-13T01:40:45;95626.03;;;7.33;36.80
64668;BME280;51077;42.716;23.344;2023-03-13T01:43:21;95633.94;;;7.31;37.18
64668;BME280;51077;42.716;23.344;2023-03-13T01:56:44;95634.53;;;7.15;37.35
64668;BME280;51077;42.716;23.344;2023-03-13T01:59:14;95635.50;;;7.12;37.44
64668;BME280;51077;42.716;23.344;2023-03-13T02:01:43;95633.72;;;7.09;37.15
64668;BME280;51077;42.716;23.344;2023-03-13T02:04:10;95635.44;;;7.06;37.26
64668;BME280;51077;42.716;23.344;2023-03-13T02:06:40;95627.44;;;7.02;37.59
64668;BME280;51077;42.716;23.344;2023-03-13T02:09:12;95631.88;;;7.00;37.55
64668;BME280;51077;42.716;23.344;2023-03-13T02:11:56;95640.25;;;6.96;37.61
64668;BME280;51077;42.716;23.344;2023-03-13T02:14:26;95640.50;;;6.93;37.77
64668;BME280;51077;42.716;23.344;2023-03-13T02:16:53;95641.69;;;6.92;37.79
64668;BME280;51077;42.716;23.344;2023-03-13T02:19:34;95643.22;;;6.93;37.64
64668;BME280;51077;42.716;23.344;2023-03-13T02:22:15;95651.13;;;6.91;37.65
64668;BME280;51077;42.716;23.344;2023-03-13T02:24:51;95651.06;;;6.85;37.74
64668;BME280;51077;42.716;23.344;2023-03-13T02:27:18;95654.72;;;6.82;37.73
64668;BME280;51077;42.716;23.344;2023-03-13T02:29:44;95659.44;;;6.82;38.23
64668;BME280;51077;42.716;23.344;2023-03-13T02:32:10;95668.56;;;6.78;37.85
64668;BME280;51077;42.716;23.344;2023-03-13T02:34:38;95669.81;;;6.77;38.33
64668;BME280;51077;42.716;23.344;2023-03-13T02:37:05;95672.28;;;6.75;38.30
64668;BME280;51077;42.716;23.344;2023-03-13T02:39:35;95675.47;;;6.74;38.10
64668;BME280;51077;42.716;23.344;2023-03-13T02:42:04;95683.38;;;6.72;37.88
64668;BME280;51077;42.716;23.344;2023-03-13T02:44:29;95687.06;;;6.69;38.32
64668;BME280;51077;42.716;23.344;2023-03-13T02:46:55;95692.25;;;6.67;38.41
64668;BME280;51077;42.716;23.344;2023-03-13T02:49:22;95701.63;;;6.66;38.53
64668;BME280;51077;42.716;23.344;2023-03-13T02:51:49;95703.81;;;6.62;38.28
64668;BME280;51077;42.716;23.344;2023-03-13T02:54:20;95696.09;;;6.60;37.91
64668;BME280;51077;42.716;23.344;2023-03-13T02:56:49;95699.31;;;6.59;38.30
64668;BME280;51077;42.716;23.344;2023-03-13T02:59:16;95702.97;;;6.55;38.47
64668;BME280;51077;42.716;23.344;2023-03-13T03:01:41;95694.81;;;6.55;38.38
64668;BME280;51077;42.716;23.344;2023-03-13T03:04:07;95691.06;;;6.53;38.63
64668;BME280;51077;42.716;23.344;2023-03-13T03:06:32;95695.00;;;6.52;38.40
64668;BME280;51077;42.716;23.344;2023-03-13T03:08:57;95699.16;;;6.47;38.97
64668;BME280;51077;42.716;23.344;2023-03-13T03:11:23;95693.44;;;6.45;38.71
64668;BME280;51077;42.716;23.344;2023-03-13T03:13:48;95698.59;;;6.43;38.90
64668;BME280;51077;42.716;23.344;2023-03-13T03:16:14;95719.66;;;6.43;38.74
64668;BME280;51077;42.716;23.344;2023-03-13T03:18:43;95715.13;;;6.40;38.58
64668;BME280;51077;42.716;23.344;2023-03-13T03:21:08;95725.28;;;6.39;38.41
64668;BME280;51077;42.716;23.344;2023-03-13T03:23:35;95729.00;;;6.36;38.79
64668;BME280;51077;42.716;23.344;2023-03-13T03:26:01;95737.63;;;6.35;38.98
64668;BME280;51077;42.716;23.344;2023-03-13T03:28:27;95736.13;;;6.34;38.62
64668;BME280;51077;42.716;23.344;2023-03-13T03:30:53;95739.78;;;6.30;38.76
64668;BME280;51077;42.716;23.344;2023-03-13T03:33:22;95740.25;;;6.29;38.87
64668;BME280;51077;42.716;23.344;2023-03-13T03:35:48;95739.53;;;6.28;38.81
64668;BME280;51077;42.716;23.344;2023-03-13T03:38:14;95740.25;;;6.29;38.91
64668;BME280;51077;42.716;23.344;2023-03-13T03:40:39;95742.72;;;6.27;38.96
64668;BME280;51077;42.716;23.344;2023-03-13T03:43:05;95750.59;;;6.25;38.74
64668;BME280;51077;42.716;23.344;2023-03-13T03:45:30;95760.94;;;6.21;38.87
64668;BME280;51077;42.716;23.344;2023-03-13T03:47:55;95776.56;;;6.20;38.98
64668;BME280;51077;42.716;23.344;2023-03-13T03:50:26;95769.13;;;6.21;39.15
64668;BME280;51077;42.716;23.344;2023-03-13T03:52:52;95765.84;;;6.17;39.13
64668;BME280;51077;42.716;23.344;2023-03-13T03:55:18;95771.28;;;6.17;39.41
64668;BME280;51077;42.716;23.344;2023-03-13T03:57:44;95772.50;;;6.16;39.46
64668;BME280;51077;42.716;23.344;2023-03-13T04:00:10;95783.88;;;6.14;39.30
64668;BME280;51077;42.716;23.344;2023-03-13T04:02:38;95786.31;;;6.12;39.47
64668;BME280;51077;42.716;23.344;2023-03-13T04:05:03;95783.31;;;6.10;39.29
64668;BME280;51077;42.716;23.344;2023-03-13T04:07:29;95786.50;;;6.09;39.26
64668;BME280;51077;42.716;23.344;2023-03-13T04:09:54;95788.22;;;6.06;39.19
64668;BME280;51077;42.716;23.344;2023-03-13T04:12:20;95790.63;;;6.04;39.40
64668;BME280;51077;42.716;23.344;2023-03-13T04:14:45;95798.06;;;6.03;39.52
64668;BME280;51077;42.716;23.344;2023-03-13T04:17:11;95799.28;;;6.02;39.82
64668;BME280;51077;42.716;23.344;2023-03-13T04:19:36;95808.38;;;5.99;39.63
64668;BME280;51077;42.716;23.344;2023-03-13T04:22:01;95804.66;;;5.97;39.52
64668;BME280;51077;42.716;23.344;2023-03-13T04:24:27;95805.84;;;5.96;39.69
64668;BME280;51077;42.716;23.344;2023-03-13T04:26:52;95805.09;;;5.95;39.75
64668;BME280;51077;42.716;23.344;2023-03-13T04:29:18;95811.03;;;5.94;39.61
64668;BME280;51077;42.716;23.344;2023-03-13T04:31:43;95823.16;;;5.93;39.62
64668;BME280;51077;42.716;23.344;2023-03-13T04:34:09;95820.41;;;5.93;39.76
64668;BME280;51077;42.716;23.344;2023-03-13T04:36:34;95823.16;;;5.93;39.97
64668;BME280;51077;42.716;23.344;2023-03-13T04:38:59;95839.16;;;5.91;39.84
64668;BME280;51077;42.716;23.344;2023-03-13T04:41:25;95839.84;;;6.00;47.14
64668;BME280;51077;42.716;23.344;2023-03-13T04:43:50;95844.38;;;6.03;46.88
64668;BME280;51077;42.716;23.344;2023-03-13T04:46:15;95846.19;;;6.07;48.46
64668;BME280;51077;42.716;23.344;2023-03-13T04:48:41;95852.47;;;6.13;50.40
64668;BME280;51077;42.716;23.344;2023-03-13T04:51:06;95848.06;;;6.15;49.32
64668;BME280;51077;42.716;23.344;2023-03-13T04:53:32;95857.19;;;6.12;49.24
64668;BME280;51077;42.716;23.344;2023-03-13T04:55:57;95849.31;;;6.14;48.31
64668;BME280;51077;42.716;23.344;2023-03-13T04:58:22;95845.63;;;6.17;47.83
64668;BME280;51077;42.716;23.344;2023-03-13T05:00:48;95855.69;;;6.26;47.29
64668;BME280;51077;42.716;23.344;2023-03-13T05:03:13;95866.41;;;6.29;46.99
64668;BME280;51077;42.716;23.344;2023-03-13T05:05:38;95854.09;;;6.34;46.85
64668;BME280;51077;42.716;23.344;2023-03-13T05:08:04;95858.88;;;6.39;46.20
64668;BME280;51077;42.716;23.344;2023-03-13T05:10:30;95855.81;;;6.46;46.26
64668;BME280;51077;42.716;23.344;2023-03-13T05:12:55;95861.47;;;6.58;45.96
64668;BME280;51077;42.716;23.344;2023-03-13T05:15:21;95870.19;;;6.62;45.64
64668;BME280;51077;42.716;23.344;2023-03-13T05:17:46;95874.50;;;6.68;45.06
64668;BME280;51077;42.716;23.344;2023-03-13T05:20:12;95873.47;;;6.80;44.57
64668;BME280;51077;42.716;23.344;2023-03-13T05:22:37;95879.19;;;6.97;44.14
64668;BME280;51077;42.716;23.344;2023-03-13T05:25:03;95881.91;;;7.12;43.75
64668;BME280;51077;42.716;23.344;2023-03-13T05:27:30;95891.00;;;7.24;43.05
64668;BME280;51077;42.716;23.344;2023-03-13T05:29:56;95887.00;;;7.40;42.89
64668;BME280;51077;42.716;23.344;2023-03-13T05:32:21;95895.44;;;7.56;42.19
64668;BME280;51077;42.716;23.344;2023-03-13T05:34:46;95892.09;;;7.67;41.83
64668;BME280;51077;42.716;23.344;2023-03-13T05:37:12;95887.81;;;7.81;42.11
64668;BME280;51077;42.716;23.344;2023-03-13T05:39:37;95898.84;;;7.92;41.48
64668;BME280;51077;42.716;23.344;2023-03-13T05:42:03;95898.06;;;8.06;41.30
64668;BME280;51077;42.716;23.344;2023-03-13T05:44:28;95895.19;;;8.16;40.75
64668;BME280;51077;42.716;23.344;2023-03-13T05:46:57;95904.53;;;8.29;40.61
64668;BME280;51077;42.716;23.344;2023-03-13T05:49:22;95909.72;;;8.48;40.54
64668;BME280;51077;42.716;23.344;2023-03-13T05:51:47;95902.41;;;8.65;39.99
64668;BME280;51077;42.716;23.344;2023-03-13T05:54:13;95913.31;;;8.86;39.47
64668;BME280;51077;42.716;23.344;2023-03-13T05:56:38;95915.69;;;9.04;39.27
64668;BME280;51077;42.716;23.344;2023-03-13T05:59:03;95917.31;;;9.22;38.94
64668;BME280;51077;42.716;23.344;2023-03-13T06:01:29;95912.78;;;9.45;38.53
64668;BME280;51077;42.716;23.344;2023-03-13T06:03:54;95919.34;;;9.64;37.96
64668;BME280;51077;42.716;23.344;2023-03-13T06:06:20;95923.19;;;9.83;37.89
64668;BME280;51077;42.716;23.344;2023-03-13T06:08:45;95926.03;;;10.00;37.59
64668;BME280;51077;42.716;23.344;2023-03-13T06:11:11;95918.63;;;10.18;37.31
64668;BME280;51077;42.716;23.344;2023-03-13T06:13:36;95914.25;;;10.37;37.25
64668;BME280;51077;42.716;23.344;2023-03-13T06:16:02;95913.78;;;10.55;36.99
64668;BME280;51077;42.716;23.344;2023-03-13T06:18:27;95919.31;;;10.78;36.41
64668;BME280;51077;42.716;23.344;2023-03-13T06:20:59;95931.06;;;11.01;36.25
64668;BME280;51077;42.716;23.344;2023-03-13T06:23:24;95927.06;;;11.19;36.06
64668;BME280;51077;42.716;23.344;2023-03-13T06:25:50;95923.31;;;11.39;35.78
64668;BME280;51077;42.716;23.344;2023-03-13T06:28:15;95928.03;;;11.61;35.74
64668;BME280;51077;42.716;23.344;2023-03-13T06:30:41;95930.78;;;11.83;35.12
64668;BME280;51077;42.716;23.344;2023-03-13T06:33:06;95923.22;;;12.06;34.84
64668;BME280;51077;42.716;23.344;2023-03-13T06:35:32;95898.63;;;12.25;34.64
64668;BME280;51077;42.716;23.344;2023-03-13T06:37:57;95906.25;;;12.49;34.15
64668;BME280;51077;42.716;23.344;2023-03-13T06:40:23;95903.88;;;12.70;33.96
64668;BME280;51077;42.716;23.344;2023-03-13T06:42:48;95914.00;;;12.92;33.56
64668;BME280;51077;42.716;23.344;2023-03-13T06:45:13;95916.84;;;13.16;33.18
64668;BME280;51077;42.716;23.344;2023-03-13T06:47:39;95921.69;;;13.40;32.95
64668;BME280;51077;42.716;23.344;2023-03-13T06:50:05;95917.69;;;13.66;32.65
64668;BME280;51077;42.716;23.344;2023-03-13T06:52:30;95921.50;;;13.87;32.40
64668;BME280;51077;42.716;23.344;2023-03-13T06:54:56;95924.00;;;14.09;32.11
64668;BME280;51077;42.716;23.344;2023-03-13T06:57:21;95914.66;;;14.37;31.77
64668;BME280;51077;42.716;23.344;2023-03-13T06:59:47;95914.59;;;14.62;31.56
64668;BME280;51077;42.716;23.344;2023-03-13T07:02:12;95906.00;;;14.84;31.18
64668;BME280;51077;42.716;23.344;2023-03-13T07:04:38;95899.38;;;15.06;30.97
64668;BME280;51077;42.716;23.344;2023-03-13T07:07:04;95910.31;;;15.30;30.47
64668;BME280;51077;42.716;23.344;2023-03-13T07:09:29;95914.19;;;15.54;30.40
64668;BME280;51077;42.716;23.344;2023-03-13T07:11:55;95910.31;;;15.76;30.13
64668;BME280;51077;42.716;23.344;2023-03-13T07:14:22;95911.19;;;15.97;29.92
64668;BME280;51077;42.716;23.344;2023-03-13T07:16:47;95908.19;;;16.22;29.63
64668;BME280;51077;42.716;23.344;2023-03-13T07:19:13;95899.44;;;16.44;29.28
64668;BME280;51077;42.716;23.344;2023-03-13T07:21:39;95900.22;;;16.66;29.06
64668;BME280;51077;42.716;23.344;2023-03-13T07:24:05;95902.53;;;16.88;28.63
64668;BME280;51077;42.716;23.344;2023-03-13T07:26:30;95901.50;;;17.12;28.64
64668;BME280;51077;42.716;23.344;2023-03-13T07:28:56;95907.03;;;17.33;28.24
64668;BME280;51077;42.716;23.344;2023-03-13T07:31:21;95902.22;;;17.54;28.16
64668;BME280;51077;42.716;23.344;2023-03-13T07:33:48;95901.88;;;17.79;27.68
64668;BME280;51077;42.716;23.344;2023-03-13T07:36:17;95897.41;;;18.04;27.47
64668;BME280;51077;42.716;23.344;2023-03-13T07:38:46;95898.09;;;18.26;27.27
64668;BME280;51077;42.716;23.344;2023-03-13T07:41:12;95905.22;;;18.50;27.07
64668;BME280;51077;42.716;23.344;2023-03-13T07:43:38;95912.19;;;18.72;26.75
64668;BME280;51077;42.716;23.344;2023-03-13T07:46:06;95912.63;;;18.91;26.76
64668;BME280;51077;42.716;23.344;2023-03-13T07:48:34;95901.53;;;19.14;26.49
64668;BME280;51077;42.716;23.344;2023-03-13T07:51:00;95907.13;;;19.37;26.34
64668;BME280;51077;42.716;23.344;2023-03-13T07:53:26;95906.63;;;19.62;26.05
64668;BME280;51077;42.716;23.344;2023-03-13T07:56:00;95896.97;;;19.86;25.85
64668;BME280;51077;42.716;23.344;2023-03-13T07:58:27;95886.88;;;20.05;25.57
64668;BME280;51077;42.716;23.344;2023-03-13T08:00:53;95888.13;;;20.27;25.46
64668;BME280;51077;42.716;23.344;2023-03-13T08:03:20;95885.28;;;20.50;25.21
64668;BME280;51077;42.716;23.344;2023-03-13T08:05:45;95883.16;;;20.74;25.08
64668;BME280;51077;42.716;23.344;2023-03-13T08:08:11;95878.75;;;20.96;24.89
64668;BME280;51077;42.716;23.344;2023-03-13T08:10:36;95871.69;;;21.20;24.55
64668;BME280;51077;42.716;23.344;2023-03-13T08:13:02;95880.69;;;21.43;24.38
64668;BME280;51077;42.716;23.344;2023-03-13T08:15:27;95879.03;;;21.65;24.13
64668;BME280;51077;42.716;23.344;2023-03-13T08:17:53;95876.75;;;21.89;24.12
64668;BME280;51077;42.716;23.344;2023-03-13T08:20:19;95881.22;;;22.09;23.95
64668;BME280;51077;42.716;23.344;2023-03-13T08:22:45;95875.41;;;22.32;23.43
64668;BME280;51077;42.716;23.344;2023-03-13T08:25:19;95880.88;;;22.57;23.39
64668;BME280;51077;42.716;23.344;2023-03-13T08:27:44;95883.38;;;22.80;23.12
64668;BME280;51077;42.716;23.344;2023-03-13T08:30:10;95880.91;;;23.01;22.70
64668;BME280;51077;42.716;23.344;2023-03-13T08:32:35;95888.97;;;23.24;22.41
64668;BME280;51077;42.716;23.344;2023-03-13T08:35:01;95888.88;;;23.42;22.53
64668;BME280;51077;42.716;23.344;2023-03-13T08:37:27;95886.91;;;23.62;22.31
64668;BME280;51077;42.716;23.344;2023-03-13T08:39:53;95890.53;;;23.81;21.97
64668;BME280;51077;42.716;23.344;2023-03-13T08:42:20;95885.56;;;23.99;21.62
64668;BME280;51077;42.716;23.344;2023-03-13T08:44:45;95883.63;;;24.12;21.52
64668;BME280;51077;42.716;23.344;2023-03-13T08:47:11;95877.00;;;24.26;21.15
64668;BME280;51077;42.716;23.344;2023-03-13T08:49:36;95879.09;;;24.45;20.94
64668;BME280;51077;42.716;23.344;2023-03-13T08:52:03;95874.06;;;24.63;21.08
64668;BME280;51077;42.716;23.344;2023-03-13T08:54:29;95880.38;;;24.83;20.49
64668;BME280;51077;42.716;23.344;2023-03-13T08:56:55;95875.78;;;24.97;20.44
64668;BME280;51077;42.716;23.344;2023-03-13T08:59:20;95867.34;;;25.17;20.37
64668;BME280;51077;42.716;23.344;2023-03-13T09:01:45;95875.56;;;25.34;20.07
64668;BME280;51077;42.716;23.344;2023-03-13T09:04:11;95869.09;;;25.53;19.80
64668;BME280;51077;42.716;23.344;2023-03-13T09:06:37;95873.13;;;25.71;19.94
64668;BME280;51077;42.716;23.344;2023-03-13T09:09:04;95872.81;;;25.87;19.82
64668;BME280;51077;42.716;23.344;2023-03-13T09:11:30;95866.66;;;26.00;19.54
64668;BME280;51077;42.716;23.344;2023-03-13T09:13:56;95868.47;;;26.17;19.32
64668;BME280;51077;42.716;23.344;2023-03-13T09:16:26;95867.69;;;26.38;19.12
64668;BME280;51077;42.716;23.344;2023-03-13T09:18:52;95862.53;;;26.55;18.70
64668;BME280;51077;42.716;23.344;2023-03-13T09:21:20;95862.47;;;26.77;18.72
64668;BME280;51077;42.716;23.344;2023-03-13T09:23:45;95858.75;;;26.96;18.20
64668;BME280;51077;42.716;23.344;2023-03-13T09:26:12;95860.75;;;27.17;18.34
64668;BME280;51077;42.716;23.344;2023-03-13T09:28:38;95866.16;;;27.36;18.06
64668;BME280;51077;42.716;23.344;2023-03-13T09:31:27;95860.50;;;27.60;17.97
64668;BME280;51077;42.716;23.344;2023-03-13T09:33:53;95868.75;;;27.79;17.73
64668;BME280;51077;42.716;23.344;2023-03-13T09:36:20;95864.19;;;27.97;17.67
64668;BME280;51077;42.716;23.344;2023-03-13T09:38:45;95857.41;;;28.14;17.64
64668;BME280;51077;42.716;23.344;2023-03-13T09:46:26;95853.31;;;28.66;17.08
64668;BME280;51077;42.716;23.344;2023-03-13T09:49:00;95859.00;;;28.80;16.89
64668;BME280;51077;42.716;23.344;2023-03-13T09:51:29;95845.56;;;28.92;17.01
64668;BME280;51077;42.716;23.344;2023-03-13T09:54:20;95842.69;;;29.04;16.64
64668;BME280;51077;42.716;23.344;2023-03-13T09:56:58;95847.00;;;29.19;16.71
64668;BME280;51077;42.716;23.344;2023-03-13T09:59:34;95848.41;;;29.32;16.25
64668;BME280;51077;42.716;23.344;2023-03-13T10:02:02;95844.41;;;29.37;16.28
64668;BME280;51077;42.716;23.344;2023-03-13T10:04:43;95843.19;;;29.53;16.14
64668;BME280;51077;42.716;23.344;2023-03-13T10:07:11;95834.72;;;29.67;15.88
64668;BME280;51077;42.716;23.344;2023-03-13T10:09:37;95833.34;;;29.82;15.83
64668;BME280;51077;42.716;23.344;2023-03-13T10:17:31;95817.25;;;30.28;15.30
64668;BME280;51077;42.716;23.344;2023-03-13T10:22:34;95810.88;;;30.57;14.87
64668;BME280;51077;42.716;23.344;2023-03-13T10:25:20;95797.09;;;30.65;15.34
64668;BME280;51077;42.716;23.344;2023-03-13T10:27:50;95790.84;;;30.83;15.10
64668;BME280;51077;42.716;23.344;2023-03-13T10:30:25;95792.03;;;30.93;14.55
64668;BME280;51077;42.716;23.344;2023-03-13T10:32:53;95782.69;;;31.07;14.48
64668;BME280;51077;42.716;23.344;2023-03-13T10:35:23;95781.16;;;31.19;14.23
64668;BME280;51077;42.716;23.344;2023-03-13T10:37:49;95773.84;;;31.30;14.54
64668;BME280;51077;42.716;23.344;2023-03-13T10:40:24;95772.75;;;31.37;14.97
64668;BME280;51077;42.716;23.344;2023-03-13T10:42:52;95767.16;;;31.39;14.61
64668;BME280;51077;42.716;23.344;2023-03-13T10:45:20;95764.78;;;31.34;14.51
64668;BME280;51077;42.716;23.344;2023-03-13T10:47:54;95767.53;;;31.32;14.56
64668;BME280;51077;42.716;23.344;2023-03-13T10:50:22;95760.75;;;31.23;14.89
64668;BME280;51077;42.716;23.344;2023-03-13T10:52:49;95759.00;;;31.16;15.07
64668;BME280;51077;42.716;23.344;2023-03-13T10:55:22;95759.84;;;31.18;14.45
64668;BME280;51077;42.716;23.344;2023-03-13T11:00:32;95750.97;;;31.10;15.11
64668;BME280;51077;42.716;23.344;2023-03-13T11:02:58;95747.47;;;31.12;14.85
64668;BME280;51077;42.716;23.344;2023-03-13T11:05:35;95745.47;;;31.14;14.56
64668;BME280;51077;42.716;23.344;2023-03-13T11:13:36;95730.44;;;31.43;14.36
64668;BME280;51077;42.716;23.344;2023-03-13T11:16:17;95723.28;;;31.58;14.20
64668;BME280;51077;42.716;23.344;2023-03-13T11:27:28;95712.09;;;31.62;13.83
64668;BME280;51077;42.716;23.344;2023-03-13T11:33:12;95711.72;;;31.70;13.62
64668;BME280;51077;42.716;23.344;2023-03-13T11:38:32;95690.81;;;31.79;13.66
64668;BME280;51077;42.716;23.344;2023-03-13T11:41:24;95688.91;;;31.84;13.65
64668;BME280;51077;42.716;23.344;2023-03-13T11:44:21;95680.63;;;31.90;13.87
64668;BME280;51077;42.716;23.344;2023-03-13T11:47:10;95671.88;;;32.01;13.63
64668;BME280;51077;42.716;23.344;2023-03-13T11:55:24;95655.88;;;32.10;13.54
64668;BME280;51077;42.716;23.344;2023-03-13T12:00:56;95646.91;;;32.36;13.45
64668;BME280;51077;42.716;23.344;2023-03-13T12:03:33;95639.31;;;32.40;13.60
64668;BME280;51077;42.716;23.344;2023-03-13T12:06:01;95635.53;;;32.53;13.10
64668;BME280;51077;42.716;23.344;2023-03-13T12:08:51;95635.75;;;32.60;13.34
64668;BME280;51077;42.716;23.344;2023-03-13T12:11:27;95629.63;;;32.67;13.05
64668;BME280;51077;42.716;23.344;2023-03-13T12:14:00;95623.44;;;32.73;13.28
64668;BME280;51077;42.716;23.344;2023-03-13T12:16:40;95619.34;;;32.78;13.25
64668;BME280;51077;42.716;23.344;2023-03-13T12:19:10;95614.34;;;32.76;13.07
64668;BME280;51077;42.716;23.344;2023-03-13T12:21:44;95619.09;;;32.70;13.31
64668;BME280;51077;42.716;23.344;2023-03-13T12:24:37;95612.16;;;32.75;13.08
64668;BME280;51077;42.716;23.344;2023-03-13T12:27:14;95615.44;;;32.67;13.40
64668;BME280;51077;42.716;23.344;2023-03-13T12:32:15;95603.91;;;32.63;13.24
64668;BME280;51077;42.716;23.344;2023-03-13T12:43:17;95594.56;;;32.61;13.37
64668;BME280;51077;42.716;23.344;2023-03-13T12:54:14;95604.88;;;32.32;13.52
64668;BME280;51077;42.716;23.344;2023-03-13T12:57:00;95605.88;;;32.21;13.93
64668;BME280;51077;42.716;23.344;2023-03-13T12:59:45;95599.09;;;32.10;13.19
64668;BME280;51077;42.716;23.344;2023-03-13T13:02:21;95601.53;;;32.00;13.67
64668;BME280;51077;42.716;23.344;2023-03-13T13:04:49;95601.22;;;31.92;13.82
64668;BME280;51077;42.716;23.344;2023-03-13T13:07:20;95603.81;;;31.86;13.58
64668;BME280;51077;42.716;23.344;2023-03-13T13:12:29;95593.16;;;31.68;14.22
64668;BME280;51077;42.716;23.344;2023-03-13T13:14:56;95594.94;;;31.60;13.81
64668;BME280;51077;42.716;23.344;2023-03-13T13:17:24;95600.72;;;31.44;14.11
64668;BME280;51077;42.716;23.344;2023-03-13T13:19:52;95600.28;;;31.34;14.13
64668;BME280;51077;42.716;23.344;2023-03-13T13:27:52;95588.25;;;30.52;16.70
64668;BME280;51077;42.716;23.344;2023-03-13T13:32:53;95581.19;;;30.05;17.06
64668;BME280;51077;42.716;23.344;2023-03-13T13:37:50;95568.31;;;29.57;17.24
64668;BME280;51077;42.716;23.344;2023-03-13T13:40:27;95570.13;;;29.37;17.34
64668;BME280;51077;42.716;23.344;2023-03-13T13:43:02;95569.88;;;29.17;17.51
64668;BME280;51077;42.716;23.344;2023-03-13T13:45:37;95563.09;;;28.94;17.23
64668;BME280;51077;42.716;23.344;2023-03-13T13:54:04;95568.41;;;28.33;18.73
64668;BME280;51077;42.716;23.344;2023-03-13T13:57:07;95560.22;;;28.12;18.71
64668;BME280;51077;42.716;23.344;2023-03-13T13:59:41;95557.50;;;28.00;18.58
64668;BME280;51077;42.716;23.344;2023-03-13T14:07:16;95549.31;;;27.92;18.13
64668;BME280;51077;42.716;23.344;2023-03-13T14:09:58;95556.44;;;27.93;18.01
64668;BME280;51077;42.716;23.344;2023-03-13T14:12:35;95549.97;;;27.91;17.71
64668;BME280;51077;42.716;23.344;2023-03-13T14:15:18;95550.47;;;27.87;17.82
64668;BME280;51077;42.716;23.344;2023-03-13T14:20:39;95549.44;;;27.69;17.89
64668;BME280;51077;42.716;23.344;2023-03-13T14:23:08;95549.97;;;27.65;17.90
64668;BME280;51077;42.716;23.344;2023-03-13T14:25:48;95547.28;;;27.55;17.72
64668;BME280;51077;42.716;23.344;2023-03-13T14:28:26;95538.69;;;27.40;17.49
64668;BME280;51077;42.716;23.344;2023-03-13T14:30:54;95547.09;;;27.26;17.69
64668;BME280;51077;42.716;23.344;2023-03-13T14:33:20;95545.53;;;27.11;17.82
64668;BME280;51077;42.716;23.344;2023-03-13T14:35:46;95544.47;;;26.93;17.74
64668;BME280;51077;42.716;23.344;2023-03-13T14:38:21;95543.41;;;26.74;17.79
64668;BME280;51077;42.716;23.344;2023-03-13T14:40:47;95543.66;;;26.55;17.67
64668;BME280;51077;42.716;23.344;2023-03-13T14:45:51;95542.34;;;26.09;18.09